Main page
METAR-TAF:

METAR-TAF

Airports :

Plzeň, Czech Republic

latitude: 49-40-31N, longitude: 13-16-29E, elevation: 362 m

Current weather observation

The report was made 25 minutes ago, at 09:00 UTC
Wind 4 kt from the East
Temperature 13°C
Humidity 88%
Pressure 1022 hPa
Visibility 10 km or more
Few clouds at a height of 900 ft
Broken clouds at a height of 2500 ft
Overcast at a height of 5800 ft

METAR: LKLN 110900Z AUTO 08004KT 9999 FEW009 BKN025 OVC058 13/11 Q1022

Time: 11:25 (09:25 UTC)


TAF: missing

Weather observations and forecasts of more than 4000 airports (METAR and TAF reports).

The available stations are represented by yellow and red dots on the map.

Hover mouse over dot to see the name of the station.

Then click to see weather observations and forecasts.

To change the map : click on the green buttons with a black cross to zoom in, on the green button with a dash to zoom out, or on the green arrows for adjacent maps.


METAR-TAF: